Time;durP1;ratioP1;P1;durP2;ratioP2;P2;SDS_P1;SDS_P2;PMS_P1;PMS_P2;Temp;Humidity;BMP_temperature;BMP_pressure;BME280_temperature;BME280_humidity;BME280_pressure;Samples;Min_cycle;Max_cycle;Signal;HPM_P1;HPM_P2
2023/08/19 00:04:53;;;;;;;36.28;28.25;;;;;;;22.54;100.00;101124.69;10496985;28;20105;-67
2023/08/19 00:09:55;;;;;;;36.30;28.70;;;;;;;22.51;100.00;101125.22;10495961;28;20120;-67
2023/08/19 00:14:56;;;;;;;38.63;27.60;;;;;;;22.51;100.00;101117.75;10495338;28;20388;-68
2023/08/19 00:19:56;;;;;;;30.10;25.95;;;;;;;22.54;100.00;101115.56;10496061;28;20028;-67
2023/08/19 00:24:57;;;;;;;42.55;32.15;;;;;;;22.58;100.00;101116.69;10496264;28;20082;-67
2023/08/19 00:29:57;;;;;;;45.40;30.40;;;;;;;22.61;100.00;101102.34;10477572;28;20028;-67
2023/08/19 00:34:57;;;;;;;36.55;29.88;;;;;;;22.68;100.00;101095.44;10495389;28;20607;-67
2023/08/19 00:39:58;;;;;;;34.25;30.70;;;;;;;22.75;100.00;101096.03;10494182;28;20426;-67
2023/08/19 00:44:59;;;;;;;41.63;30.13;;;;;;;22.79;100.00;101076.16;10477553;28;20392;-67
2023/08/19 00:50:00;;;;;;;30.90;27.75;;;;;;;22.84;100.00;101079.72;10494997;28;20107;-67
2023/08/19 00:55:00;;;;;;;31.00;26.52;;;;;;;22.88;100.00;101074.50;10493725;28;20415;-68
2023/08/19 01:00:01;;;;;;;34.97;29.13;;;;;;;22.91;100.00;101074.78;10495214;28;20333;-67
2023/08/19 01:05:01;;;;;;;34.28;26.20;;;;;;;22.88;100.00;101067.03;10494755;28;20048;-68
2023/08/19 01:10:21;;;;;;;34.20;25.27;;;;;;;22.91;100.00;101063.72;10493342;28;20028;-68
2023/08/19 01:15:24;;;;;;;34.50;26.70;;;;;;;22.90;100.00;101061.22;10493950;28;20464;-67
2023/08/19 01:20:29;;;;;;;31.20;25.40;;;;;;;22.92;100.00;101057.09;10494908;28;20399;-67
2023/08/19 01:25:29;;;;;;;33.92;25.75;;;;;;;22.91;100.00;101060.09;10460677;28;20040;-67
2023/08/19 01:30:31;;;;;;;50.47;26.33;;;;;;;22.83;100.00;101057.91;10500057;28;20041;-67
2023/08/19 01:35:39;;;;;;;33.38;25.58;;;;;;;22.79;100.00;101060.41;10518076;28;20044;-67
2023/08/19 01:40:40;;;;;;;28.98;22.95;;;;;;;22.78;100.00;101057.91;10467984;28;20040;-67
2023/08/19 01:45:40;;;;;;;26.33;23.40;;;;;;;22.78;100.00;101055.13;10501003;28;20116;-68
2023/08/19 01:50:41;;;;;;;28.27;23.80;;;;;;;22.79;100.00;101052.13;10502163;28;20111;-67
2023/08/19 01:55:41;;;;;;;27.80;24.15;;;;;;;22.79;100.00;101056.81;10502417;28;20166;-67
2023/08/19 02:00:42;;;;;;;27.33;22.83;;;;;;;22.77;100.00;101040.50;10501326;28;20090;-67
2023/08/19 02:05:42;;;;;;;26.67;23.90;;;;;;;22.80;100.00;101039.97;10500822;28;20048;-68
2023/08/19 02:10:43;;;;;;;30.63;24.27;;;;;;;22.81;100.00;101035.25;10501304;28;20036;-68
2023/08/19 02:15:43;;;;;;;36.63;25.17;;;;;;;22.81;100.00;101030.56;10499658;28;20029;-67
2023/08/19 02:20:49;;;;;;;29.60;24.58;;;;;;;22.82;100.00;101028.66;10501475;28;20127;-68
2023/08/19 02:25:51;;;;;;;29.95;23.50;;;;;;;22.82;100.00;101020.38;10498958;28;20120;-67
2023/08/19 02:30:52;;;;;;;31.02;22.92;;;;;;;22.80;100.00;101017.88;10483564;28;20040;-67
2023/08/19 02:35:53;;;;;;;27.83;22.85;;;;;;;22.83;100.00;101017.31;10499286;28;20032;-68
2023/08/19 02:40:54;;;;;;;28.55;23.73;;;;;;;22.85;100.00;101017.06;10499069;28;20036;-67
2023/08/19 02:45:54;;;;;;;29.27;23.08;;;;;;;22.82;100.00;100995.53;10499955;28;20037;-67
2023/08/19 02:50:55;;;;;;;25.23;22.40;;;;;;;22.80;100.00;101006.00;10499630;28;20087;-67
2023/08/19 02:55:55;;;;;;;27.95;24.13;;;;;;;22.79;100.00;101001.59;10499362;28;20123;-68
2023/08/19 03:00:56;;;;;;;24.50;21.13;;;;;;;22.78;100.00;101003.50;10482135;28;20040;-68
2023/08/19 03:06:00;;;;;;;33.13;20.45;;;;;;;22.66;100.00;100961.56;10498857;28;20068;-67
2023/08/19 03:11:02;;;;;;;31.92;22.45;;;;;;;22.63;100.00;100956.59;10498393;28;20195;-67
2023/08/19 03:16:03;;;;;;;26.92;21.55;;;;;;;22.66;100.00;100958.81;10500422;28;20070;-68
2023/08/19 03:21:03;;;;;;;24.75;20.88;;;;;;;22.69;100.00;100989.44;10498051;28;20037;-68
2023/08/19 03:26:03;;;;;;;28.40;20.75;;;;;;;22.73;100.00;100989.72;10497656;28;20140;-67
2023/08/19 03:31:10;;;;;;;31.58;22.55;;;;;;;22.79;100.00;100998.84;10498522;28;20116;-68
2023/08/19 03:36:11;;;;;;;28.52;19.88;;;;;;;22.85;100.00;101001.31;10497682;28;20041;-68
2023/08/19 03:41:11;;;;;;;24.67;19.00;;;;;;;22.91;100.00;100999.34;10497777;28;20060;-68
2023/08/19 03:46:11;;;;;;;28.95;18.52;;;;;;;22.97;100.00;101001.03;10497782;28;20075;-68
2023/08/19 03:51:12;;;;;;;23.05;17.13;;;;;;;23.04;100.00;101000.75;10496201;28;20029;-68
2023/08/19 03:56:12;;;;;;;18.25;16.27;;;;;;;23.14;100.00;101009.03;10496760;28;20400;-68
2023/08/19 04:01:13;;;;;;;24.63;18.48;;;;;;;23.28;100.00;101004.59;10495753;28;20046;-67
2023/08/19 04:06:13;;;;;;;22.05;16.13;;;;;;;23.40;100.00;101005.09;10496391;28;20101;-68
2023/08/19 04:11:14;;;;;;;22.17;15.88;;;;;;;23.43;100.00;101001.78;10495250;28;20044;-68
2023/08/19 04:16:14;;;;;;;17.10;15.10;;;;;;;23.48;100.00;101005.63;10496558;28;20047;-67
2023/08/19 04:21:14;;;;;;;16.20;14.35;;;;;;;23.52;100.00;101001.22;10511994;28;20399;-67
2023/08/19 04:26:15;;;;;;;20.77;14.88;;;;;;;23.56;100.00;100994.00;10496222;28;20170;-67
2023/08/19 04:31:15;;;;;;;15.48;13.75;;;;;;;23.60;100.00;101006.16;10496053;28;20094;-68
2023/08/19 04:36:16;;;;;;;18.05;15.60;;;;;;;23.65;100.00;101011.66;10496855;28;20079;-68
2023/08/19 04:41:16;;;;;;;17.27;14.25;;;;;;;23.69;100.00;101001.72;10478146;28;20131;-68
2023/08/19 04:46:17;;;;;;;21.33;13.48;;;;;;;23.77;100.00;101009.44;10494439;28;20377;-68
2023/08/19 04:51:18;;;;;;;14.90;13.13;;;;;;;23.77;100.00;101003.06;10495835;28;20025;-68
2023/08/19 04:56:18;;;;;;;14.55;12.93;;;;;;;23.76;100.00;101010.53;10495748;28;20037;-68
2023/08/19 05:01:20;;;;;;;15.15;13.65;;;;;;;23.67;100.00;101023.25;10495470;28;20115;-67
2023/08/19 05:06:21;;;;;;;14.07;10.18;;;;;;;23.42;100.00;101038.81;10493278;28;20056;-67
2023/08/19 05:11:21;;;;;;;21.33;12.27;;;;;;;23.26;100.00;101025.31;10494192;28;20383;-67
2023/08/19 05:16:22;;;;;;;13.98;12.02;;;;;;;23.20;100.00;101017.03;10494287;28;20036;-68
2023/08/19 05:21:22;;;;;;;19.50;13.02;;;;;;;23.20;100.00;101019.81;10476672;28;20170;-68
2023/08/19 05:26:23;;;;;;;14.65;12.38;;;;;;;23.25;100.00;101026.41;10493469;28;20444;-67
2023/08/19 05:31:23;;;;;;;20.10;13.88;;;;;;;23.30;100.00;101032.78;10493674;28;20116;-68
2023/08/19 05:36:24;;;;;;;15.30;12.82;;;;;;;23.44;100.00;101044.06;10494817;28;20068;-68
2023/08/19 05:41:24;;;;;;;15.45;13.65;;;;;;;23.61;100.00;101050.09;10476314;28;20091;-67
2023/08/19 05:46:25;;;;;;;16.00;14.50;;;;;;;23.80;100.00;101047.59;10493464;28;20082;-67
2023/08/19 05:51:25;;;;;;;17.30;11.88;;;;;;;23.93;100.00;101061.91;10493027;28;20031;-68
2023/08/19 05:56:26;;;;;;;13.73;11.98;;;;;;;24.03;100.00;101057.16;10495099;28;20352;-68
2023/08/19 06:01:27;;;;;;;13.65;12.43;;;;;;;24.11;100.00;101058.50;10493045;28;20036;-68
2023/08/19 06:06:27;;;;;;;19.02;11.82;;;;;;;24.22;100.00;101064.78;10493540;28;20084;-67
2023/08/19 06:11:28;;;;;;;13.32;11.27;;;;;;;24.33;100.00;101069.19;10492328;28;20040;-68
2023/08/19 06:16:28;;;;;;;13.23;10.75;;;;;;;24.55;100.00;101082.63;10497041;28;20028;-68
2023/08/19 06:21:29;;;;;;;12.68;11.48;;;;;;;24.52;100.00;101092.34;10500853;28;20067;-68
2023/08/19 06:26:29;;;;;;;16.92;11.13;;;;;;;24.44;100.00;101083.81;10499135;28;20060;-68
2023/08/19 06:31:30;;;;;;;15.45;11.40;;;;;;;24.32;100.00;101084.97;10498916;28;20064;-68
2023/08/19 06:36:30;;;;;;;14.10;12.45;;;;;;;24.14;100.00;101107.75;10498582;28;20486;-68
2023/08/19 06:41:35;;;;;;;13.70;11.73;;;;;;;24.01;100.00;101098.09;10481474;28;20371;-67
2023/08/19 06:46:36;;;;;;;24.42;12.93;;;;;;;23.96;100.00;101100.06;10499529;28;20430;-68
2023/08/19 06:51:37;;;;;;;19.52;12.82;;;;;;;23.91;100.00;101117.50;10482078;28;20050;-68
2023/08/19 06:56:47;;;;;;;11.77;10.57;;;;;;;24.00;100.00;101112.22;10499218;28;20106;-68
2023/08/19 07:01:52;;;;;;;14.68;10.80;;;;;;;24.22;100.00;101118.22;10499681;28;20032;-68
2023/08/19 07:06:52;;;;;;;12.52;11.10;;;;;;;24.51;100.00;101129.44;10497380;28;20078;-68
2023/08/19 07:11:53;;;;;;;21.35;11.57;;;;;;;24.62;100.00;101134.94;10499055;28;20391;-68
2023/08/19 07:16:55;;;;;;;12.23;9.95;;;;;;;24.61;100.00;101156.25;10514355;28;20075;-68
2023/08/19 07:21:56;;;;;;;11.48;10.35;;;;;;;24.48;100.00;101168.78;10496710;28;20067;-68
2023/08/19 07:26:57;;;;;;;13.85;10.50;;;;;;;24.35;100.00;101139.75;10479306;28;20086;-67
2023/08/19 07:31:58;;;;;;;12.65;9.73;;;;;;;24.28;100.00;101155.84;10496124;28;20043;-68
2023/08/19 07:36:58;;;;;;;15.10;11.00;;;;;;;24.31;100.00;101163.56;10513217;28;20364;-67
2023/08/19 07:41:59;;;;;;;14.50;10.63;;;;;;;24.53;100.00;101174.28;10498588;28;20064;-67
2023/08/19 07:46:59;;;;;;;13.85;12.15;;;;;;;24.74;100.00;101180.53;10496413;28;20502;-68
2023/08/19 07:52:00;;;;;;;17.90;11.70;;;;;;;24.89;100.00;101204.56;10497013;28;20444;-67
2023/08/19 07:57:00;;;;;;;13.63;12.27;;;;;;;25.19;100.00;101214.63;10495960;28;20028;-68
2023/08/19 08:02:01;;;;;;;14.77;13.32;;;;;;;26.23;100.00;101209.81;10496437;28;20085;-67
2023/08/19 08:07:03;;;;;;;13.20;11.82;;;;;;;27.77;100.00;101209.31;10495859;28;20441;-68
2023/08/19 08:12:04;;;;;;;11.90;10.70;;;;;;;29.41;100.00;101209.47;10497079;28;20404;-70
2023/08/19 08:17:04;;;;;;;10.50;9.43;;;;;;;30.48;100.00;101214.16;10494719;28;20051;-68
2023/08/19 08:22:05;;;;;;;6.97;5.25;;;;;;;30.18;100.00;101225.03;10494410;28;20032;-67
2023/08/19 08:27:05;;;;;;;4.47;4.10;;;;;;;29.99;97.95;101257.94;10494096;28;20114;-67
2023/08/19 08:32:06;;;;;;;5.03;3.42;;;;;;;30.89;93.19;101263.25;10495491;28;20025;-67
2023/08/19 08:37:06;;;;;;;3.78;3.47;;;;;;;30.73;88.25;101260.09;10494275;28;20029;-67
2023/08/19 08:42:07;;;;;;;4.03;3.72;;;;;;;31.11;88.16;101284.69;10494928;28;20043;-67
2023/08/19 08:47:07;;;;;;;3.33;3.10;;;;;;;31.49;86.83;101284.91;10495262;28;20081;-67
2023/08/19 08:52:08;;;;;;;6.32;3.47;;;;;;;32.16;81.63;101287.13;10493629;28;20101;-67
2023/08/19 08:57:08;;;;;;;3.60;3.30;;;;;;;32.82;84.18;101297.06;10492889;28;20107;-67
2023/08/19 09:02:10;;;;;;;3.40;3.13;;;;;;;33.35;73.43;101312.41;10476422;28;20071;-67
2023/08/19 09:07:31;;;;;;;2.75;2.55;;;;;;;32.98;62.99;101316.97;10493194;28;20040;-67
2023/08/19 09:12:31;;;;;;;2.97;2.72;;;;;;;31.77;65.18;101334.94;10494776;28;20391;-67
2023/08/19 09:17:32;;;;;;;3.95;2.92;;;;;;;30.42;71.03;101339.22;10493717;28;20055;-67
2023/08/19 09:22:33;;;;;;;3.97;3.38;;;;;;;30.74;70.66;101360.41;10494889;28;20071;-67
2023/08/19 09:27:33;;;;;;;3.63;3.42;;;;;;;32.75;70.82;101359.31;10495492;28;20033;-67
2023/08/19 09:32:35;;;;;;;4.15;3.75;;;;;;;33.30;69.41;101366.75;10492817;28;20170;-65
2023/08/19 09:37:36;;;;;;;4.47;3.25;;;;;;;33.31;57.24;101379.66;10492155;28;20117;-65
2023/08/19 09:42:40;;;;;;;3.03;2.78;;;;;;;33.24;64.46;101367.31;10493756;28;20032;-65
2023/08/19 09:47:50;;;;;;;3.45;3.15;;;;;;;31.14;60.22;101390.34;10493410;28;20063;-65
2023/08/19 09:52:54;;;;;;;4.35;3.58;;;;;;;29.24;74.04;101393.44;10517135;28;20464;-64
2023/08/19 09:57:56;;;;;;;4.93;4.07;;;;;;;28.42;79.23;101389.44;10501589;28;20458;-66
2023/08/19 10:02:56;;;;;;;8.00;5.90;;;;;;;27.92;84.25;101406.66;10501656;28;20123;-65
2023/08/19 10:08:03;;;;;;;7.55;6.07;;;;;;;27.30;87.41;101428.09;10500079;28;20045;-65
2023/08/19 10:13:04;;;;;;;6.65;6.03;;;;;;;27.40;87.95;101422.41;10499917;28;20032;-64
2023/08/19 10:18:13;;;;;;;5.10;4.70;;;;;;;28.07;87.23;101421.47;10499681;28;20536;-65
2023/08/19 10:23:13;;;;;;;5.95;5.45;;;;;;;28.03;85.56;101443.53;10499496;28;20476;-65
2023/08/19 10:28:27;;;;;;;5.63;5.13;;;;;;;29.71;79.88;101445.16;10498462;28;20032;-65
2023/08/19 10:33:29;;;;;;;9.73;6.80;;;;;;;29.83;78.97;101442.63;10501441;28;20043;-65
2023/08/19 10:38:54;;;;;;;7.50;6.65;;;;;;;28.88;82.02;101436.78;10501255;28;20066;-65
2023/08/19 10:43:59;;;;;;;8.90;5.10;;;;;;;28.47;79.56;101445.88;10501034;28;20075;-66
2023/08/19 10:49:00;;;;;;;7.73;4.10;;;;;;;28.83;76.84;101436.03;10498913;28;20027;-66
2023/08/19 10:54:07;;;;;;;5.68;4.10;;;;;;;27.83;76.98;101464.16;10499455;28;20027;-65
2023/08/19 10:59:09;;;;;;;3.88;3.17;;;;;;;27.00;79.40;101482.09;10497707;28;20063;-65
2023/08/19 11:04:09;;;;;;;7.05;4.05;;;;;;;26.72;82.00;101514.31;10498993;28;20033;-65
2023/08/19 11:09:10;;;;;;;7.35;4.85;;;;;;;26.36;84.26;101539.56;10480521;28;20547;-65
2023/08/19 11:14:17;;;;;;;10.27;3.85;;;;;;;25.61;86.55;101537.69;10497829;28;20033;-66
2023/08/19 11:19:18;;;;;;;4.30;3.83;;;;;;;25.32;88.87;101534.75;10499657;28;20112;-66
2023/08/19 11:24:18;;;;;;;10.13;3.50;;;;;;;25.57;87.43;101569.88;10498803;28;20098;-66
2023/08/19 11:29:18;;;;;;;6.80;3.88;;;;;;;25.51;85.86;101565.47;10496979;28;20119;-66
2023/08/19 11:34:19;;;;;;;10.05;2.97;;;;;;;24.98;83.91;101560.28;10498189;28;20067;-66
2023/08/19 11:39:19;;;;;;;5.65;2.47;;;;;;;24.67;84.44;101570.53;10497996;28;20518;-66
2023/08/19 11:44:20;;;;;;;2.08;1.88;;;;;;;24.40;85.34;101606.72;10496521;28;20396;-66
2023/08/19 11:49:20;;;;;;;6.30;2.83;;;;;;;23.84;87.44;101606.53;10497501;28;20040;-66
2023/08/19 11:54:21;;;;;;;13.77;5.18;;;;;;;23.67;89.89;101626.03;10497193;28;20040;-69
2023/08/19 11:59:32;;;;;;;13.82;3.88;;;;;;;23.60;92.20;101639.25;10496923;28;20140;-66
2023/08/19 12:04:35;;;;;;;7.47;4.82;;;;;;;23.67;92.95;101675.81;10479980;28;20032;-66
2023/08/19 12:09:38;;;;;;;7.72;3.08;;;;;;;23.48;93.34;101704.97;10495466;28;20045;-66
2023/08/19 12:14:38;;;;;;;10.73;4.10;;;;;;;23.21;94.22;101683.75;10494762;28;20363;-65
2023/08/19 12:19:39;;;;;;;12.25;3.88;;;;;;;22.89;95.49;101650.56;10494273;28;20039;-67
2023/08/19 12:24:40;;;;;;;9.63;4.85;;;;;;;22.65;97.88;101661.91;10495882;28;20106;-66
2023/08/19 12:29:41;;;;;;;6.75;3.90;;;;;;;22.57;99.41;101654.09;10494846;28;20036;-66
2023/08/19 12:34:41;;;;;;;10.73;4.05;;;;;;;22.23;100.00;101675.50;10495803;28;20126;-67
2023/08/19 12:39:41;;;;;;;14.55;4.20;;;;;;;22.17;100.00;101693.06;10494793;28;20044;-67
2023/08/19 12:44:42;;;;;;;13.13;3.10;;;;;;;22.18;100.00;101697.53;10495491;28;20101;-67
2023/08/19 12:49:42;;;;;;;12.60;4.50;;;;;;;22.33;100.00;101707.91;10495404;28;20037;-67
2023/08/19 12:54:43;;;;;;;19.00;4.95;;;;;;;22.87;100.00;101708.81;10494213;28;20040;-66
2023/08/19 12:59:43;;;;;;;8.60;4.13;;;;;;;23.26;100.00;101708.69;10494831;28;20086;-66
2023/08/19 13:04:43;;;;;;;8.73;4.88;;;;;;;23.38;98.38;101706.56;10492933;28;20161;-66
2023/08/19 13:09:44;;;;;;;8.65;3.78;;;;;;;23.19;97.53;101713.56;10494126;28;20511;-66
2023/08/19 13:14:44;;;;;;;7.80;2.85;;;;;;;23.58;96.90;101716.97;10493104;28;20039;-68
2023/08/19 13:19:45;;;;;;;24.10;5.20;;;;;;;24.41;93.96;101705.31;10491606;28;20070;-67
2023/08/19 13:24:45;;;;;;;7.38;3.33;;;;;;;24.39;89.04;101703.91;10498409;28;20090;-67
2023/08/19 13:29:46;;;;;;;8.57;3.28;;;;;;;24.45;90.08;101716.69;10501747;28;20028;-67
2023/08/19 13:34:46;;;;;;;10.13;3.47;;;;;;;25.00;85.42;101723.47;10484164;28;20488;-67
2023/08/19 13:39:46;;;;;;;2.72;2.00;;;;;;;25.11;84.68;101710.47;10502152;28;20619;-66
2023/08/19 13:44:47;;;;;;;6.60;3.80;;;;;;;25.16;81.55;101714.09;10501272;28;20392;-68
2023/08/19 13:49:47;;;;;;;4.03;3.45;;;;;;;25.23;82.27;101713.84;10500519;28;20021;-68
2023/08/19 13:54:48;;;;;;;9.07;3.53;;;;;;;26.12;82.23;101726.25;10500330;28;20098;-66
2023/08/19 13:59:48;;;;;;;7.60;3.25;;;;;;;26.24;75.87;101731.50;10499831;28;20440;-68
2023/08/19 14:04:48;;;;;;;4.40;2.92;;;;;;;25.86;72.00;101739.34;10501800;28;20039;-65
2023/08/19 14:09:49;;;;;;;6.03;2.72;;;;;;;27.24;64.56;101727.66;10498787;28;20048;-65
2023/08/19 14:14:49;;;;;;;6.15;2.95;;;;;;;27.79;63.77;101733.03;10500017;28;20040;-65
2023/08/19 14:19:50;;;;;;;5.70;3.17;;;;;;;27.69;59.18;101731.16;10501397;28;20121;-69
2023/08/19 14:24:50;;;;;;;9.13;4.72;;;;;;;27.46;58.93;101748.63;10499970;28;20036;-67
2023/08/19 14:29:51;;;;;;;6.78;2.67;;;;;;;27.71;59.60;101745.63;10498770;28;20119;-68
2023/08/19 14:34:51;;;;;;;2.67;2.13;;;;;;;27.65;57.93;101748.75;10498710;28;20466;-67
2023/08/19 14:39:52;;;;;;;4.60;2.20;;;;;;;27.59;56.96;101757.13;10498236;28;20387;-67
2023/08/19 14:44:53;;;;;;;7.95;2.63;;;;;;;27.69;57.57;101756.19;10497570;28;20086;-68
2023/08/19 14:49:53;;;;;;;21.85;3.00;;;;;;;27.30;55.42;101767.38;10498953;28;20488;-67
2023/08/19 14:54:53;;;;;;;8.05;2.58;;;;;;;27.16;56.36;101752.47;10497824;28;20072;-67
2023/08/19 14:59:55;;;;;;;10.82;3.00;;;;;;;26.62;56.90;101760.53;10499567;28;20032;-67
2023/08/19 15:04:55;;;;;;;2.10;1.85;;;;;;;26.04;58.47;101760.16;10480656;28;20037;-67
2023/08/19 15:09:55;;;;;;;4.18;1.90;;;;;;;25.89;59.09;101760.16;10499688;28;20522;-67
2023/08/19 15:14:56;;;;;;;5.22;3.03;;;;;;;25.72;60.07;101752.94;10498890;28;20032;-67
2023/08/19 15:19:56;;;;;;;7.75;2.80;;;;;;;25.34;62.21;101768.19;10498752;28;20028;-66
2023/08/19 15:24:57;;;;;;;6.95;2.22;;;;;;;25.41;62.88;101759.59;10497553;28;20033;-67
2023/08/19 15:29:57;;;;;;;3.25;2.25;;;;;;;25.37;64.48;101764.88;10496898;28;20029;-67
2023/08/19 15:34:58;;;;;;;3.47;2.10;;;;;;;25.22;65.37;101765.69;10496150;28;20406;-67
2023/08/19 15:39:58;;;;;;;2.67;2.15;;;;;;;24.78;64.50;101755.00;10497518;28;20033;-67
2023/08/19 15:44:58;;;;;;;1.50;1.30;;;;;;;24.34;63.84;101755.34;10496818;28;20193;-66
2023/08/19 15:49:59;;;;;;;1.67;1.58;;;;;;;23.84;65.80;101751.19;10497420;28;20035;-67
2023/08/19 15:54:59;;;;;;;2.85;2.55;;;;;;;23.60;66.67;101760.91;10498268;28;20124;-66
2023/08/19 16:00:00;;;;;;;5.63;2.08;;;;;;;23.41;67.89;101758.53;10496263;28;20464;-66
2023/08/19 16:05:00;;;;;;;11.38;2.88;;;;;;;23.48;68.48;101765.78;10496085;28;20040;-66
2023/08/19 16:10:01;;;;;;;9.00;2.67;;;;;;;23.34;68.65;101779.22;10511327;28;20107;-66
2023/08/19 16:15:02;;;;;;;4.65;1.58;;;;;;;23.24;68.83;101766.13;10495083;28;20123;-66
2023/08/19 16:20:03;;;;;;;1.58;1.40;;;;;;;23.14;68.92;101777.09;10478504;28;20029;-66
2023/08/19 16:25:04;;;;;;;2.60;1.83;;;;;;;23.02;69.81;101770.88;10495707;28;20493;-66
2023/08/19 16:30:05;;;;;;;5.97;2.67;;;;;;;22.97;70.09;101772.50;10495781;28;20063;-66
2023/08/19 16:35:06;;;;;;;5.57;2.47;;;;;;;23.02;70.39;101780.00;10494514;28;20021;-66
2023/08/19 16:40:07;;;;;;;2.30;2.10;;;;;;;22.95;70.46;101782.13;10497078;28;20045;-66
2023/08/19 16:45:08;;;;;;;3.58;2.90;;;;;;;22.90;70.64;101790.31;10511742;28;20115;-66
2023/08/19 16:50:09;;;;;;;2.40;1.83;;;;;;;22.83;71.70;101797.97;10494229;28;20119;-66
2023/08/19 16:55:09;;;;;;;3.83;2.63;;;;;;;22.79;72.41;101794.91;10495262;28;20395;-67
2023/08/19 17:00:10;;;;;;;2.28;1.70;;;;;;;22.71;73.64;101787.88;10492837;28;20123;-66
2023/08/19 17:05:10;;;;;;;7.65;2.55;;;;;;;22.60;73.80;101786.09;10494783;28;20033;-67
2023/08/19 17:10:11;;;;;;;9.73;3.60;;;;;;;22.52;74.46;101786.53;10495406;28;20045;-66
2023/08/19 17:15:11;;;;;;;3.33;2.53;;;;;;;22.44;75.17;101796.09;10494728;28;20098;-66
2023/08/19 17:20:13;;;;;;;4.90;2.58;;;;;;;22.43;75.24;101804.63;10495341;28;20107;-66
2023/08/19 17:25:15;;;;;;;3.90;2.25;;;;;;;22.37;75.82;101817.53;10476683;28;20037;-66
2023/08/19 17:30:15;;;;;;;7.13;1.88;;;;;;;22.26;75.92;101815.72;10477214;28;20028;-66
2023/08/19 17:35:15;;;;;;;2.33;1.63;;;;;;;22.22;76.45;101825.59;10493700;28;20426;-67
2023/08/19 17:40:16;;;;;;;14.18;2.38;;;;;;;22.14;77.07;101832.31;10476425;28;20064;-66
2023/08/19 17:45:16;;;;;;;4.63;1.92;;;;;;;22.02;77.52;101831.59;10494214;28;20077;-66
2023/08/19 17:50:17;;;;;;;16.38;2.60;;;;;;;21.96;77.99;101846.41;10495638;28;20032;-66
2023/08/19 17:55:17;;;;;;;4.18;2.03;;;;;;;21.80;78.66;101831.50;10496915;28;20041;-66
2023/08/19 18:00:18;;;;;;;2.72;2.03;;;;;;;21.63;80.42;101836.16;10492611;28;20455;-66
2023/08/19 18:05:18;;;;;;;10.40;1.73;;;;;;;21.59;80.64;101846.84;10492332;28;20482;-66
2023/08/19 18:10:19;;;;;;;7.75;1.80;;;;;;;21.48;82.60;101850.53;10495638;28;20099;-66
2023/08/19 18:15:21;;;;;;;9.00;2.55;;;;;;;21.38;82.56;101851.16;10502113;28;20043;-67
2023/08/19 18:20:22;;;;;;;10.82;3.30;;;;;;;21.27;83.54;101860.28;10501125;28;20144;-66
2023/08/19 18:25:22;;;;;;;5.97;2.28;;;;;;;21.13;83.38;101854.22;10500238;28;20382;-66
2023/08/19 18:30:23;;;;;;;9.18;2.47;;;;;;;20.99;85.40;101864.66;10500827;28;20119;-66
2023/08/19 18:35:23;;;;;;;1.45;1.35;;;;;;;20.87;86.05;101861.13;10482339;28;20108;-66
2023/08/19 18:40:23;;;;;;;9.90;2.17;;;;;;;20.72;87.26;101861.63;10500454;28;20428;-66
2023/08/19 18:45:24;;;;;;;1.95;1.45;;;;;;;20.58;90.39;101871.19;10515400;28;20060;-66
2023/08/19 18:50:26;;;;;;;4.57;1.85;;;;;;;20.52;89.60;101875.78;10499461;28;20036;-66
2023/08/19 18:55:27;;;;;;;5.55;2.22;;;;;;;20.38;90.29;101879.81;10515718;28;20033;-66
2023/08/19 19:00:28;;;;;;;3.88;2.28;;;;;;;20.24;91.84;101878.38;10482423;28;20372;-66
2023/08/19 19:05:28;;;;;;;7.30;2.35;;;;;;;20.15;90.29;101892.47;10481365;28;20052;-66
2023/08/19 19:10:28;;;;;;;11.48;2.58;;;;;;;20.05;91.46;101892.22;10480093;28;20475;-66
2023/08/19 19:15:29;;;;;;;5.85;3.05;;;;;;;19.95;90.01;101890.06;10496930;28;20036;-66
2023/08/19 19:20:29;;;;;;;12.18;2.42;;;;;;;19.84;91.02;101901.84;10479728;28;20043;-66
2023/08/19 19:25:30;;;;;;;13.75;3.03;;;;;;;19.76;91.77;101906.84;10481512;28;20048;-66
2023/08/19 19:30:30;;;;;;;11.95;4.00;;;;;;;19.67;92.19;101920.91;10498298;28;20132;-66
2023/08/19 19:35:31;;;;;;;4.90;2.20;;;;;;;19.59;92.73;101921.22;10497575;28;20055;-66
2023/08/19 19:40:31;;;;;;;5.60;2.85;;;;;;;19.54;93.34;101926.56;10495925;28;20037;-66
2023/08/19 19:45:32;;;;;;;3.55;2.60;;;;;;;19.52;92.82;101931.44;10496771;28;20067;-66
2023/08/19 19:50:32;;;;;;;5.53;2.58;;;;;;;19.62;93.24;101931.75;10496960;28;20036;-66
2023/08/19 19:55:33;;;;;;;8.90;2.50;;;;;;;19.76;94.15;101926.09;10496839;28;20519;-66
2023/08/19 20:00:35;;;;;;;3.58;3.03;;;;;;;19.89;93.15;101943.22;10478769;28;20079;-66
2023/08/19 20:05:35;;;;;;;6.85;2.80;;;;;;;20.02;95.96;101949.59;10495086;28;20052;-66
2023/08/19 20:10:36;;;;;;;7.82;3.15;;;;;;;20.13;94.80;101952.38;10495008;28;20446;-65
2023/08/19 20:15:36;;;;;;;8.30;3.45;;;;;;;20.24;94.15;101952.63;10496367;28;20037;-66
2023/08/19 20:20:36;;;;;;;12.25;2.58;;;;;;;20.30;93.50;101951.69;10495758;28;20376;-66
2023/08/19 20:25:37;;;;;;;7.47;2.67;;;;;;;20.25;94.23;101946.88;10498130;28;20041;-66
2023/08/19 20:30:38;;;;;;;10.60;2.60;;;;;;;20.19;94.22;101954.16;10496430;28;20044;-66
2023/08/19 20:35:38;;;;;;;4.03;2.35;;;;;;;20.05;95.46;101949.13;10476204;28;20066;-66
2023/08/19 20:40:38;;;;;;;5.82;2.33;;;;;;;20.00;96.51;101962.72;10493756;28;20086;-66
2023/08/19 20:45:39;;;;;;;9.70;2.78;;;;;;;20.02;95.37;101961.44;10493936;28;20111;-66
2023/08/19 20:50:39;;;;;;;9.55;2.78;;;;;;;20.04;95.23;101952.94;10494319;28;20131;-66
2023/08/19 20:55:40;;;;;;;2.60;2.22;;;;;;;20.04;94.87;101969.44;10459120;28;20032;-66
2023/08/19 21:00:40;;;;;;;4.43;2.50;;;;;;;20.09;94.55;101977.81;10493074;28;20075;-66
2023/08/19 21:05:41;;;;;;;1.63;1.45;;;;;;;20.04;93.93;101966.69;10495119;28;20145;-66
2023/08/19 21:10:41;;;;;;;9.65;2.67;;;;;;;19.91;93.84;101963.06;10494141;28;20075;-66
2023/08/19 21:15:42;;;;;;;4.10;1.88;;;;;;;19.86;94.40;101973.94;10496082;28;20132;-66
2023/08/19 21:20:43;;;;;;;3.67;2.88;;;;;;;19.78;93.09;101962.41;10494863;28;20137;-66
2023/08/19 21:25:44;;;;;;;7.93;2.65;;;;;;;19.60;93.84;101971.53;10493345;28;20043;-66
2023/08/19 21:30:51;;;;;;;4.85;2.42;;;;;;;19.59;94.12;101972.56;10494811;28;20031;-66
2023/08/19 21:35:52;;;;;;;21.13;11.88;;;;;;;19.51;93.80;101974.56;10493800;28;20076;-66
2023/08/19 21:40:54;;;;;;;3.42;2.00;;;;;;;19.41;93.38;101970.69;10492039;28;20420;-67
2023/08/19 21:45:58;;;;;;;5.97;2.35;;;;;;;19.22;93.56;101965.22;10497064;28;20195;-67
2023/08/19 21:50:58;;;;;;;3.88;2.40;;;;;;;19.07;94.94;101970.25;10483216;28;20029;-66
2023/08/19 21:55:59;;;;;;;8.80;3.25;;;;;;;19.00;96.27;101961.25;10500001;28;20029;-67
2023/08/19 22:00:59;;;;;;;6.93;1.98;;;;;;;18.99;97.30;101965.91;10499196;28;20515;-67
2023/08/19 22:06:02;;;;;;;6.15;2.95;;;;;;;18.90;96.33;101955.44;10499889;28;20136;-67
2023/08/19 22:11:03;;;;;;;9.07;3.03;;;;;;;18.78;96.50;101960.84;10499659;28;20092;-67
2023/08/19 22:16:03;;;;;;;3.55;2.65;;;;;;;18.67;95.97;101975.28;10499870;28;20064;-67
2023/08/19 22:21:04;;;;;;;9.10;3.45;;;;;;;18.54;97.32;101973.50;10500821;28;20036;-67
2023/08/19 22:26:04;;;;;;;11.82;3.17;;;;;;;18.56;96.95;101965.88;10482304;28;20544;-67
2023/08/19 22:31:08;;;;;;;20.48;10.52;;;;;;;18.49;96.55;101973.31;10499395;28;20032;-67
2023/08/19 22:36:09;;;;;;;14.68;4.00;;;;;;;18.41;97.00;101974.44;10499370;28;20036;-67
2023/08/19 22:41:10;;;;;;;5.78;3.47;;;;;;;18.39;98.62;101967.50;10500132;28;20032;-67
2023/08/19 22:46:11;;;;;;;2.97;1.42;;;;;;;18.45;98.35;101966.59;10500461;28;20486;-67